Hlavní strana
METAR-TAF:

METAR-TAF

Letiště :

Nukus, Uzbekistán

zeměpisná šířka: 42-28-48N, zeměpisná délka: 059-37-48E, výška: 77 m

Aktuální stav počasí

Zpráva byla vytvořena před 23 minutami, v 15:30 UTC
Východoseverovýchodní vítr 8 kt
Teplota 26°C
Vlhkost vzduchu 11%
Tlak 1011 hPa
Viditelnost 10 km a více
Žádná oblačnost pod 1500 m, nevyskytují se cumulonimby.

METAR: UTNN 241530Z 07008KT CAVOK 26/M07 Q1011 R15/CLRD60 NOSIG

Čas: 20:53 (15:53 UTC)

Předpověď počasí

Zpráva byla vytvořena před 4 hodinami a 53 minutami, v 11:00 UTC
Předpověď platná od 24 v 12 UTC do 25 v 12 UTC
Východní vítr 16 kt s nárazy do 26 kt
Viditelnost 10 km a více
Žádná oblačnost pod 1500 m, nevyskytují se cumulonimby.
Dočasný
od 25 v 04 UTC do 25 v 12 UTC
Jihovýchodní vítr 14 kt s nárazy do 24 kt

TAF: UTNN 241100Z 2412/2512 09016G26KT CAVOK TEMPO 2504/2512 13014G24KT

Stav a předpovědi počasí z více než 4 000 letišť (zprávy METAR a TAF).

Červené a žluté tečky na mapě představují dostupné meteorologické stanice.

Když kurzor umístíte na tečku, zobrazí se název stanice.

Pak kliknutím zobrazíte stav a předpověď počasí.

Chcete-li změnit mapu, kliknutím na zelené tlačítko se znaménkem +mapu přiblížíte, kliknutím na zelené tlačítko se znaménkem – mapu oddálíte a kliknutím na zelené šipky přejdete na sousední mapy.


METAR-TAF: